sensor_id;sensor_type;location;lat;lon;timestamp;temperature;humidity
24176;DHT22;12324;48.146;11.502;2024-03-23T00:54:26;11.40;99.90
24176;DHT22;12324;48.146;11.502;2024-03-23T02:12:39;11.50;99.90
24176;DHT22;12324;48.146;11.502;2024-03-23T02:15:05;10.50;99.90
24176;DHT22;12324;48.146;11.502;2024-03-23T02:17:33;10.50;99.90
24176;DHT22;12324;48.146;11.502;2024-03-23T02:19:59;10.50;99.90
24176;DHT22;12324;48.146;11.502;2024-03-23T02:22:37;10.40;99.90
24176;DHT22;12324;48.146;11.502;2024-03-23T05:30:51;9.40;99.90
24176;DHT22;12324;48.146;11.502;2024-03-23T05:33:18;11.00;99.90
24176;DHT22;12324;48.146;11.502;2024-03-23T05:35:45;10.90;99.90
24176;DHT22;12324;48.146;11.502;2024-03-23T05:38:11;11.00;99.90
24176;DHT22;12324;48.146;11.502;2024-03-23T05:40:36;11.00;99.90
24176;DHT22;12324;48.146;11.502;2024-03-23T05:43:06;10.90;99.90
24176;DHT22;12324;48.146;11.502;2024-03-23T05:45:32;10.90;99.90
24176;DHT22;12324;48.146;11.502;2024-03-23T05:47:58;10.90;99.90
24176;DHT22;12324;48.146;11.502;2024-03-23T05:50:24;10.90;99.90
24176;DHT22;12324;48.146;11.502;2024-03-23T05:52:50;10.90;99.90
24176;DHT22;12324;48.146;11.502;2024-03-23T05:55:16;10.80;99.90
24176;DHT22;12324;48.146;11.502;2024-03-23T05:57:42;10.90;99.90
24176;DHT22;12324;48.146;11.502;2024-03-23T06:00:08;11.10;99.90
24176;DHT22;12324;48.146;11.502;2024-03-23T06:02:43;11.20;99.90
24176;DHT22;12324;48.146;11.502;2024-03-23T06:05:12;11.20;99.90
24176;DHT22;12324;48.146;11.502;2024-03-23T06:15:00;11.40;99.90
24176;DHT22;12324;48.146;11.502;2024-03-23T06:17:26;11.90;99.90
24176;DHT22;12324;48.146;11.502;2024-03-23T06:19:52;12.00;99.90
24176;DHT22;12324;48.146;11.502;2024-03-23T06:22:17;12.00;99.90
24176;DHT22;12324;48.146;11.502;2024-03-23T06:24:44;12.10;99.90
24176;DHT22;12324;48.146;11.502;2024-03-23T06:29:36;12.10;99.90
24176;DHT22;12324;48.146;11.502;2024-03-23T06:32:02;12.20;99.90
24176;DHT22;12324;48.146;11.502;2024-03-23T06:34:29;12.30;99.90
24176;DHT22;12324;48.146;11.502;2024-03-23T06:36:55;12.40;99.90
24176;DHT22;12324;48.146;11.502;2024-03-23T06:39:21;12.60;99.90
24176;DHT22;12324;48.146;11.502;2024-03-23T06:41:54;12.70;99.90
24176;DHT22;12324;48.146;11.502;2024-03-23T06:44:20;12.80;99.90
24176;DHT22;12324;48.146;11.502;2024-03-23T06:46:46;12.90;99.90
24176;DHT22;12324;48.146;11.502;2024-03-23T06:59:00;13.10;99.90
24176;DHT22;12324;48.146;11.502;2024-03-23T07:01:26;14.00;99.90
24176;DHT22;12324;48.146;11.502;2024-03-23T07:03:54;14.10;99.90
24176;DHT22;12324;48.146;11.502;2024-03-23T07:06:20;14.20;99.90
24176;DHT22;12324;48.146;11.502;2024-03-23T07:08:46;14.20;99.90
24176;DHT22;12324;48.146;11.502;2024-03-23T07:11:17;14.20;99.90
24176;DHT22;12324;48.146;11.502;2024-03-23T07:13:43;14.20;99.90
24176;DHT22;12324;48.146;11.502;2024-03-23T07:16:09;14.10;99.90
24176;DHT22;12324;48.146;11.502;2024-03-23T07:18:35;14.00;99.90
24176;DHT22;12324;48.146;11.502;2024-03-23T07:21:01;14.00;99.90
24176;DHT22;12324;48.146;11.502;2024-03-23T07:23:27;14.00;99.90
24176;DHT22;12324;48.146;11.502;2024-03-23T07:26:00;14.00;99.90
24176;DHT22;12324;48.146;11.502;2024-03-23T07:28:27;14.00;99.90
24176;DHT22;12324;48.146;11.502;2024-03-23T07:31:04;13.90;99.90
24176;DHT22;12324;48.146;11.502;2024-03-23T07:33:30;13.80;99.90
24176;DHT22;12324;48.146;11.502;2024-03-23T07:35:56;13.70;99.90
24176;DHT22;12324;48.146;11.502;2024-03-23T07:38:23;13.70;99.90
24176;DHT22;12324;48.146;11.502;2024-03-23T07:45:52;13.60;99.90
24176;DHT22;12324;48.146;11.502;2024-03-23T07:48:18;12.20;99.90
24176;DHT22;12324;48.146;11.502;2024-03-23T07:53:11;11.90;99.90
24176;DHT22;12324;48.146;11.502;2024-03-23T07:55:36;11.40;99.90
24176;DHT22;12324;48.146;11.502;2024-03-23T08:12:46;11.00;99.90
24176;DHT22;12324;48.146;11.502;2024-03-23T08:15:12;9.80;99.90
24176;DHT22;12324;48.146;11.502;2024-03-23T08:17:37;9.60;99.90
24176;DHT22;12324;48.146;11.502;2024-03-23T08:22:30;9.30;99.90
24176;DHT22;12324;48.146;11.502;2024-03-23T08:24:56;9.30;99.90
24176;DHT22;12324;48.146;11.502;2024-03-23T08:27:22;9.30;99.90
24176;DHT22;12324;48.146;11.502;2024-03-23T08:29:47;9.30;99.90
24176;DHT22;12324;48.146;11.502;2024-03-23T08:32:13;9.10;99.90
24176;DHT22;12324;48.146;11.502;2024-03-23T08:34:39;9.00;99.90
24176;DHT22;12324;48.146;11.502;2024-03-23T08:39:31;8.50;99.90
24176;DHT22;12324;48.146;11.502;2024-03-23T08:44:23;8.20;99.90
24176;DHT22;12324;48.146;11.502;2024-03-23T08:46:49;8.00;99.90
24176;DHT22;12324;48.146;11.502;2024-03-23T08:49:15;8.00;99.90
24176;DHT22;12324;48.146;11.502;2024-03-23T08:51:41;8.00;99.90
24176;DHT22;12324;48.146;11.502;2024-03-23T08:54:07;7.90;99.90
24176;DHT22;12324;48.146;11.502;2024-03-23T08:56:33;7.90;99.90
24176;DHT22;12324;48.146;11.502;2024-03-23T08:58:59;7.80;99.90
24176;DHT22;12324;48.146;11.502;2024-03-23T09:01:25;7.80;99.90
24176;DHT22;12324;48.146;11.502;2024-03-23T09:03:50;7.70;99.90
24176;DHT22;12324;48.146;11.502;2024-03-23T09:06:16;7.80;99.90
24176;DHT22;12324;48.146;11.502;2024-03-23T09:08:42;7.80;99.90
24176;DHT22;12324;48.146;11.502;2024-03-23T09:11:12;7.70;99.90
24176;DHT22;12324;48.146;11.502;2024-03-23T10:02:43;7.70;99.90
24176;DHT22;12324;48.146;11.502;2024-03-23T10:05:22;7.00;99.90
24176;DHT22;12324;48.146;11.502;2024-03-23T10:07:53;6.90;99.90
24176;DHT22;12324;48.146;11.502;2024-03-23T10:10:19;6.80;99.90
24176;DHT22;12324;48.146;11.502;2024-03-23T10:12:49;6.80;99.90
24176;DHT22;12324;48.146;11.502;2024-03-23T10:15:19;6.90;99.90
24176;DHT22;12324;48.146;11.502;2024-03-23T10:17:46;6.90;99.90
24176;DHT22;12324;48.146;11.502;2024-03-23T13:54:28;7.00;99.90
